PWSweather.com
Personal Weather Stations
Station Observations
KWINECED3
Necedah, WI 54646

Necedah, WI 54646

Lat: 43.9985333333333, Lon: -89.9915833333333

Elevation: 890

Station Type: Ambient WS1090

http://weather.starosta.org

Latest ConditionsUpdated 10:15:02 PM CST Thursday, Dec 13, 2018
Currently Today's Max Today's Min Today's Average
Temperature 32.5°F0.3°C 35.1°F1.7°C 31.6°F-0.2°C 32.4°F0.2°C
Dew Point 32.5°F0.3°C 34.3°F1.3°C 31.6°F-0.2°C 32.3°F0.2°C
Winds Calm Calm 0.8 mph -1.3 kmh - - 0.0 mph 0.0 kmh
Wind Gusts 0.8 mph1.3 kmh 2.8 mph4.5 kmh - -
Humidity 100% 100% 95% 99%
Pressure 29.91 in1012.9 mb 29.91 in1012.9 mb 29.70 in1005.8 mb -
Precipitation - 0.01 in0.3 mm - -
Hour Temp Dew Point Humidity Winds Wind Gusts Pressure Precip Precip Rate Daily Precip Total
10:15 PM 32.5°F0.3°C 32.5°F0.3°C 100% Calm Calm 0.8 mph1.3 kmh 29.91 in1012.9 mb 0.00 in0.0 mm 0.00 in0.0 mm 0.01 in0.3 mm
10:00 PM 32.5°F0.3°C 32.5°F0.3°C 100% Calm Calm -- 29.91 in1012.9 mb 0.00 in0.0 mm 0.00 in0.0 mm 0.01 in0.3 mm
09:45 PM 32.5°F0.3°C 32.5°F0.3°C 100% Calm Calm 0.8 mph1.3 kmh 29.91 in1012.9 mb 0.00 in0.0 mm 0.00 in0.0 mm 0.01 in0.3 mm
09:30 PM 32.5°F0.3°C 32.5°F0.3°C 100% Calm Calm -- 29.90 in1012.5 mb 0.00 in0.0 mm 0.00 in0.0 mm 0.01 in0.3 mm
09:15 PM 32.5°F0.3°C 32.5°F0.3°C 100% Calm Calm -- 29.91 in1012.9 mb 0.00 in0.0 mm 0.00 in0.0 mm 0.01 in0.3 mm
09:00 PM 32.5°F0.3°C 32.5°F0.3°C 100% Calm Calm -- 29.90 in1012.5 mb 0.00 in0.0 mm 0.00 in0.0 mm 0.01 in0.3 mm
08:45 PM 32.4°F0.2°C 32.4°F0.2°C 100% Calm Calm -- 29.90 in1012.5 mb 0.00 in0.0 mm 0.00 in0.0 mm 0.01 in0.3 mm
08:30 PM 32.4°F0.2°C 32.4°F0.2°C 100% Calm Calm -- 29.90 in1012.5 mb 0.00 in0.0 mm 0.00 in0.0 mm 0.01 in0.3 mm
08:15 PM 32.2°F0.1°C 32.2°F0.1°C 100% Calm Calm 2.0 mph3.2 kmh 29.90 in1012.5 mb 0.00 in0.0 mm 0.00 in0.0 mm 0.01 in0.3 mm
08:00 PM 32.2°F0.1°C 32.2°F0.1°C 100% Calm Calm -- 29.90 in1012.5 mb 0.00 in0.0 mm 0.00 in0.0 mm 0.01 in0.3 mm
07:45 PM 32.0°F0.0°C 32.0°F0.0°C 100% Calm Calm -- 29.90 in1012.5 mb 0.00 in0.0 mm 0.00 in0.0 mm 0.01 in0.3 mm
07:30 PM 32.2°F0.1°C 32.2°F0.1°C 100% Calm Calm -- 29.89 in1012.2 mb 0.00 in0.0 mm 0.00 in0.0 mm 0.01 in0.3 mm
07:15 PM 32.2°F0.1°C 32.2°F0.1°C 100% Calm Calm 2.0 mph3.2 kmh 29.89 in1012.2 mb 0.00 in0.0 mm 0.00 in0.0 mm 0.01 in0.3 mm
07:00 PM 32.4°F0.2°C 32.4°F0.2°C 100% 0.8 mph NW1.3 kmh NW 2.0 mph3.2 kmh 29.89 in1012.2 mb 0.00 in0.0 mm 0.00 in0.0 mm 0.01 in0.3 mm
06:45 PM 32.5°F0.3°C 32.5°F0.3°C 100% Calm Calm -- 29.88 in1011.9 mb 0.00 in0.0 mm 0.00 in0.0 mm 0.01 in0.3 mm
06:30 PM 32.7°F0.4°C 32.7°F0.4°C 100% Calm Calm 0.8 mph1.3 kmh 29.88 in1011.9 mb 0.00 in0.0 mm 0.00 in0.0 mm 0.01 in0.3 mm
06:15 PM 32.7°F0.4°C 32.7°F0.4°C 100% Calm Calm 2.0 mph3.2 kmh 29.88 in1011.9 mb 0.00 in0.0 mm 0.00 in0.0 mm 0.01 in0.3 mm
06:00 PM 32.9°F0.5°C 32.9°F0.5°C 100% Calm Calm 2.0 mph3.2 kmh 29.88 in1011.9 mb 0.00 in0.0 mm 0.00 in0.0 mm 0.01 in0.3 mm
05:45 PM 33.1°F0.6°C 33.1°F0.6°C 100% Calm Calm 2.0 mph3.2 kmh 29.88 in1011.9 mb 0.00 in0.0 mm 0.00 in0.0 mm 0.01 in0.3 mm
05:30 PM 33.1°F0.6°C 33.1°F0.6°C 100% Calm Calm -- 29.88 in1011.9 mb 0.00 in0.0 mm 0.00 in0.0 mm 0.01 in0.3 mm
05:15 PM 33.3°F0.7°C 33.3°F0.7°C 100% Calm Calm 2.0 mph3.2 kmh 29.88 in1011.9 mb 0.00 in0.0 mm 0.00 in0.0 mm 0.01 in0.3 mm
05:00 PM 33.3°F0.7°C 33.3°F0.7°C 100% Calm Calm 2.0 mph3.2 kmh 29.89 in1012.2 mb 0.00 in0.0 mm 0.00 in0.0 mm 0.01 in0.3 mm
04:45 PM 33.4°F0.8°C 33.4°F0.8°C 100% Calm Calm 0.8 mph1.3 kmh 29.89 in1012.2 mb 0.00 in0.0 mm 0.00 in0.0 mm 0.01 in0.3 mm
04:30 PM 33.6°F0.9°C 33.4°F0.8°C 99% Calm Calm 0.8 mph1.3 kmh 29.87 in1011.5 mb 0.00 in0.0 mm 0.00 in0.0 mm 0.01 in0.3 mm
04:15 PM 33.8°F1.0°C 33.0°F0.6°C 97% Calm Calm 2.0 mph3.2 kmh 29.87 in1011.5 mb 0.00 in0.0 mm 0.00 in0.0 mm 0.01 in0.3 mm
04:00 PM 34.0°F1.1°C 33.0°F0.6°C 96% Calm Calm 2.0 mph3.2 kmh 29.86 in1011.2 mb 0.01 in0.3 mm 0.00 in0.0 mm 0.01 in0.3 mm
03:45 PM 34.3°F1.3°C 33.1°F0.6°C 95% Calm Calm 0.8 mph1.3 kmh 29.85 in1010.8 mb 0.01 in0.3 mm 0.00 in0.0 mm 0.01 in0.3 mm
03:30 PM 34.7°F1.5°C 33.4°F0.8°C 95% Calm Calm 2.0 mph3.2 kmh 29.85 in1010.8 mb 0.01 in0.3 mm 0.00 in0.0 mm 0.01 in0.3 mm
03:15 PM 35.1°F1.7°C 33.8°F1.0°C 95% Calm Calm 0.8 mph1.3 kmh 29.85 in1010.8 mb 0.01 in0.3 mm 0.04 in1.0 mm 0.01 in0.3 mm
03:00 PM 35.1°F1.7°C 33.8°F1.0°C 95% Calm Calm 0.8 mph1.3 kmh 29.84 in1010.5 mb 0.00 in0.0 mm 0.00 in0.0 mm 0.00 in0.0 mm
02:45 PM 34.7°F1.5°C 33.4°F0.8°C 95% Calm Calm 2.0 mph3.2 kmh 29.84 in1010.5 mb 0.00 in0.0 mm 0.00 in0.0 mm 0.00 in0.0 mm
02:30 PM 34.3°F1.3°C 33.3°F0.7°C 96% Calm Calm 0.8 mph1.3 kmh 29.84 in1010.5 mb 0.00 in0.0 mm 0.00 in0.0 mm 0.00 in0.0 mm
02:15 PM 34.2°F1.2°C 32.9°F0.5°C 95% Calm Calm 0.8 mph1.3 kmh 29.84 in1010.5 mb 0.00 in0.0 mm 0.00 in0.0 mm 0.00 in0.0 mm
02:00 PM 34.0°F1.1°C 32.7°F0.4°C 95% Calm Calm 2.0 mph3.2 kmh 29.83 in1010.2 mb 0.00 in0.0 mm 0.00 in0.0 mm 0.00 in0.0 mm
01:45 PM 34.0°F1.1°C 33.0°F0.6°C 96% Calm Calm 0.8 mph1.3 kmh 29.84 in1010.5 mb 0.00 in0.0 mm 0.00 in0.0 mm 0.00 in0.0 mm
01:30 PM 34.2°F1.2°C 33.1°F0.6°C 96% Calm Calm 2.8 mph4.5 kmh 29.84 in1010.5 mb 0.00 in0.0 mm 0.00 in0.0 mm 0.00 in0.0 mm
01:15 PM 34.2°F1.2°C 33.1°F0.6°C 96% Calm Calm 2.0 mph3.2 kmh 29.83 in1010.2 mb 0.00 in0.0 mm 0.00 in0.0 mm 0.00 in0.0 mm
01:00 PM 34.3°F1.3°C 33.6°F0.9°C 97% Calm Calm 2.0 mph3.2 kmh 29.83 in1010.2 mb 0.00 in0.0 mm 0.00 in0.0 mm 0.00 in0.0 mm
12:45 PM 34.0°F1.1°C 33.2°F0.7°C 97% Calm Calm 2.0 mph3.2 kmh 29.82 in1009.8 mb 0.00 in0.0 mm 0.00 in0.0 mm 0.00 in0.0 mm
12:30 PM 34.2°F1.2°C 33.7°F0.9°C 98% Calm Calm 2.0 mph3.2 kmh 29.81 in1009.5 mb 0.00 in0.0 mm 0.00 in0.0 mm 0.00 in0.0 mm
12:15 PM 34.5°F1.4°C 34.3°F1.3°C 99% Calm Calm 0.8 mph1.3 kmh 29.81 in1009.5 mb 0.00 in0.0 mm 0.00 in0.0 mm 0.00 in0.0 mm
12:00 PM 34.2°F1.2°C 34.2°F1.2°C 100% Calm Calm 2.8 mph4.5 kmh 29.82 in1009.8 mb 0.00 in0.0 mm 0.00 in0.0 mm 0.00 in0.0 mm
11:45 AM 33.4°F0.8°C 33.4°F0.8°C 100% Calm Calm 0.8 mph1.3 kmh 29.82 in1009.8 mb 0.00 in0.0 mm 0.00 in0.0 mm 0.00 in0.0 mm
11:30 AM 31.6°F-0.2°C 31.6°F-0.2°C 100% Calm Calm 0.8 mph1.3 kmh 29.83 in1010.2 mb 0.00 in0.0 mm 0.00 in0.0 mm 0.00 in0.0 mm
11:15 AM 31.6°F-0.2°C 31.6°F-0.2°C 100% Calm Calm 0.8 mph1.3 kmh 29.84 in1010.5 mb 0.00 in0.0 mm 0.00 in0.0 mm 0.00 in0.0 mm
11:00 AM 31.6°F-0.2°C 31.6°F-0.2°C 100% Calm Calm 0.8 mph1.3 kmh 29.84 in1010.5 mb 0.00 in0.0 mm 0.00 in0.0 mm 0.00 in0.0 mm
10:45 AM 31.6°F-0.2°C 31.6°F-0.2°C 100% Calm Calm 0.8 mph1.3 kmh 29.84 in1010.5 mb 0.00 in0.0 mm 0.00 in0.0 mm 0.00 in0.0 mm
10:30 AM 31.6°F-0.2°C 31.6°F-0.2°C 100% Calm Calm 0.8 mph1.3 kmh 29.84 in1010.5 mb 0.00 in0.0 mm 0.00 in0.0 mm 0.00 in0.0 mm
10:15 AM 31.6°F-0.2°C 31.6°F-0.2°C 100% Calm Calm 0.8 mph1.3 kmh 29.85 in1010.8 mb 0.00 in0.0 mm 0.00 in0.0 mm 0.00 in0.0 mm
10:00 AM 31.6°F-0.2°C 31.6°F-0.2°C 100% Calm Calm 0.8 mph1.3 kmh 29.85 in1010.8 mb 0.00 in0.0 mm 0.00 in0.0 mm 0.00 in0.0 mm
09:45 AM 31.6°F-0.2°C 31.6°F-0.2°C 100% Calm Calm 0.8 mph1.3 kmh 29.84 in1010.5 mb 0.00 in0.0 mm 0.00 in0.0 mm 0.00 in0.0 mm
09:30 AM 31.6°F-0.2°C 31.6°F-0.2°C 100% Calm Calm 0.8 mph1.3 kmh 29.84 in1010.5 mb 0.00 in0.0 mm 0.00 in0.0 mm 0.00 in0.0 mm
09:15 AM 31.6°F-0.2°C 31.6°F-0.2°C 100% Calm Calm 0.8 mph1.3 kmh 29.83 in1010.2 mb 0.00 in0.0 mm 0.00 in0.0 mm 0.00 in0.0 mm
09:00 AM 31.6°F-0.2°C 31.6°F-0.2°C 100% Calm Calm 0.8 mph1.3 kmh 29.83 in1010.2 mb 0.00 in0.0 mm 0.00 in0.0 mm 0.00 in0.0 mm
08:45 AM 31.6°F-0.2°C 31.6°F-0.2°C 100% Calm Calm 0.8 mph1.3 kmh 29.82 in1009.8 mb 0.00 in0.0 mm 0.00 in0.0 mm 0.00 in0.0 mm
08:30 AM 31.6°F-0.2°C 31.6°F-0.2°C 100% Calm Calm 0.8 mph1.3 kmh 29.82 in1009.8 mb 0.00 in0.0 mm 0.00 in0.0 mm 0.00 in0.0 mm
08:15 AM 31.6°F-0.2°C 31.6°F-0.2°C 100% Calm Calm 0.8 mph1.3 kmh 29.81 in1009.5 mb 0.00 in0.0 mm 0.00 in0.0 mm 0.00 in0.0 mm
08:00 AM 31.6°F-0.2°C 31.6°F-0.2°C 100% Calm Calm 0.8 mph1.3 kmh 29.81 in1009.5 mb 0.00 in0.0 mm 0.00 in0.0 mm 0.00 in0.0 mm
07:45 AM 31.6°F-0.2°C 31.6°F-0.2°C 100% Calm Calm 0.8 mph1.3 kmh 29.80 in1009.1 mb 0.00 in0.0 mm 0.00 in0.0 mm 0.00 in0.0 mm
07:30 AM 31.6°F-0.2°C 31.6°F-0.2°C 100% Calm Calm 0.8 mph1.3 kmh 29.81 in1009.5 mb 0.00 in0.0 mm 0.00 in0.0 mm 0.00 in0.0 mm
07:15 AM 31.6°F-0.2°C 31.6°F-0.2°C 100% Calm Calm 0.8 mph1.3 kmh 29.81 in1009.5 mb 0.00 in0.0 mm 0.00 in0.0 mm 0.00 in0.0 mm
07:00 AM 31.6°F-0.2°C 31.6°F-0.2°C 100% Calm Calm 0.8 mph1.3 kmh 29.81 in1009.5 mb 0.00 in0.0 mm 0.00 in0.0 mm 0.00 in0.0 mm
06:45 AM 31.6°F-0.2°C 31.6°F-0.2°C 100% Calm Calm 0.8 mph1.3 kmh 29.80 in1009.1 mb 0.00 in0.0 mm 0.00 in0.0 mm 0.00 in0.0 mm
06:30 AM 31.6°F-0.2°C 31.6°F-0.2°C 100% Calm Calm 0.8 mph1.3 kmh 29.80 in1009.1 mb 0.00 in0.0 mm 0.00 in0.0 mm 0.00 in0.0 mm
06:15 AM 31.6°F-0.2°C 31.6°F-0.2°C 100% Calm Calm 0.8 mph1.3 kmh 29.80 in1009.1 mb 0.00 in0.0 mm 0.00 in0.0 mm 0.00 in0.0 mm
06:00 AM 31.6°F-0.2°C 31.6°F-0.2°C 100% Calm Calm 0.8 mph1.3 kmh 29.80 in1009.1 mb 0.00 in0.0 mm 0.00 in0.0 mm 0.00 in0.0 mm
05:45 AM 31.6°F-0.2°C 31.6°F-0.2°C 100% Calm Calm 0.8 mph1.3 kmh 29.80 in1009.1 mb 0.00 in0.0 mm 0.00 in0.0 mm 0.00 in0.0 mm
05:30 AM 31.6°F-0.2°C 31.6°F-0.2°C 100% Calm Calm 0.8 mph1.3 kmh 29.79 in1008.8 mb 0.00 in0.0 mm 0.00 in0.0 mm 0.00 in0.0 mm
05:15 AM 31.6°F-0.2°C 31.6°F-0.2°C 100% Calm Calm 0.8 mph1.3 kmh 29.78 in1008.5 mb 0.00 in0.0 mm 0.00 in0.0 mm 0.00 in0.0 mm
05:00 AM 31.6°F-0.2°C 31.6°F-0.2°C 100% Calm Calm 0.8 mph1.3 kmh 29.78 in1008.5 mb 0.00 in0.0 mm 0.00 in0.0 mm 0.00 in0.0 mm
04:45 AM 31.6°F-0.2°C 31.6°F-0.2°C 100% Calm Calm 0.8 mph1.3 kmh 29.78 in1008.5 mb 0.00 in0.0 mm 0.00 in0.0 mm 0.00 in0.0 mm
04:30 AM 31.6°F-0.2°C 31.6°F-0.2°C 100% Calm Calm 0.8 mph1.3 kmh 29.78 in1008.5 mb 0.00 in0.0 mm 0.00 in0.0 mm 0.00 in0.0 mm
04:15 AM 31.6°F-0.2°C 31.6°F-0.2°C 100% Calm Calm 0.8 mph1.3 kmh 29.78 in1008.5 mb 0.00 in0.0 mm 0.00 in0.0 mm 0.00 in0.0 mm
04:00 AM 31.6°F-0.2°C 31.6°F-0.2°C 100% Calm Calm 0.8 mph1.3 kmh 29.77 in1008.1 mb 0.00 in0.0 mm 0.00 in0.0 mm 0.00 in0.0 mm
03:45 AM 31.6°F-0.2°C 31.6°F-0.2°C 100% Calm Calm 0.8 mph1.3 kmh 29.77 in1008.1 mb 0.00 in0.0 mm 0.00 in0.0 mm 0.00 in0.0 mm
03:30 AM 31.6°F-0.2°C 31.6°F-0.2°C 100% Calm Calm 0.8 mph1.3 kmh 29.77 in1008.1 mb 0.00 in0.0 mm 0.00 in0.0 mm 0.00 in0.0 mm
03:15 AM 31.6°F-0.2°C 31.6°F-0.2°C 100% Calm Calm 0.8 mph1.3 kmh 29.76 in1007.8 mb 0.00 in0.0 mm 0.00 in0.0 mm 0.00 in0.0 mm
03:00 AM 31.6°F-0.2°C 31.6°F-0.2°C 100% Calm Calm 0.8 mph1.3 kmh 29.76 in1007.8 mb 0.00 in0.0 mm 0.00 in0.0 mm 0.00 in0.0 mm
02:45 AM 31.6°F-0.2°C 31.6°F-0.2°C 100% Calm Calm 0.8 mph1.3 kmh 29.75 in1007.5 mb 0.00 in0.0 mm 0.00 in0.0 mm 0.00 in0.0 mm
02:30 AM 31.6°F-0.2°C 31.6°F-0.2°C 100% Calm Calm 0.8 mph1.3 kmh 29.75 in1007.5 mb 0.00 in0.0 mm 0.00 in0.0 mm 0.00 in0.0 mm
02:15 AM 31.6°F-0.2°C 31.6°F-0.2°C 100% Calm Calm 0.8 mph1.3 kmh 29.75 in1007.5 mb 0.00 in0.0 mm 0.00 in0.0 mm 0.00 in0.0 mm
02:00 AM 31.6°F-0.2°C 31.6°F-0.2°C 100% Calm Calm 0.8 mph1.3 kmh 29.73 in1006.8 mb 0.00 in0.0 mm 0.00 in0.0 mm 0.00 in0.0 mm
01:45 AM 31.6°F-0.2°C 31.6°F-0.2°C 100% Calm Calm 0.8 mph1.3 kmh 29.73 in1006.8 mb 0.00 in0.0 mm 0.00 in0.0 mm 0.00 in0.0 mm
01:30 AM 31.6°F-0.2°C 31.6°F-0.2°C 100% Calm Calm 0.8 mph1.3 kmh 29.73 in1006.8 mb 0.00 in0.0 mm 0.00 in0.0 mm 0.00 in0.0 mm
01:15 AM 31.6°F-0.2°C 31.6°F-0.2°C 100% Calm Calm 0.8 mph1.3 kmh 29.73 in1006.8 mb 0.00 in0.0 mm 0.00 in0.0 mm 0.00 in0.0 mm
01:00 AM 31.6°F-0.2°C 31.6°F-0.2°C 100% Calm Calm 0.8 mph1.3 kmh 29.72 in1006.4 mb 0.00 in0.0 mm 0.00 in0.0 mm 0.00 in0.0 mm
12:45 AM 31.6°F-0.2°C 31.6°F-0.2°C 100% Calm Calm 0.8 mph1.3 kmh 29.72 in1006.4 mb 0.00 in0.0 mm 0.00 in0.0 mm 0.00 in0.0 mm
12:30 AM 31.6°F-0.2°C 31.6°F-0.2°C 100% Calm Calm 0.8 mph1.3 kmh 29.70 in1005.8 mb 0.00 in0.0 mm 0.00 in0.0 mm 0.00 in0.0 mm
12:15 AM 31.6°F-0.2°C 31.6°F-0.2°C 100% Calm Calm 0.8 mph1.3 kmh 29.71 in1006.1 mb 0.00 in0.0 mm 0.00 in0.0 mm 0.00 in0.0 mm
12:00 AM 31.6°F-0.2°C 31.6°F-0.2°C 100% Calm Calm 0.8 mph1.3 kmh 29.71 in1006.1 mb 0.00 in0.0 mm 0.00 in0.0 mm 0.00 in0.0 mm